Time;durP1;ratioP1;P1;durP2;ratioP2;P2;SDS_P1;SDS_P2;PMS_P1;PMS_P2;Temp;Humidity;BMP_temperature;BMP_pressure;BME280_temperature;BME280_humidity;BME280_pressure;Samples;Min_cycle;Max_cycle;Signal;HPM_P1;HPM_P2
2021/06/08 00:04:48;;;;;;;663.23;635.37;;;14.60;99.90;;;;;;6158462;23;20475;-83
2021/06/08 00:07:35;;;;;;;666.57;638.17;;;14.60;99.90;;;;;;6166854;23;20440;-84
2021/06/08 00:10:02;;;;;;;653.37;625.67;;;14.70;99.90;;;;;;6156874;23;20402;-84
2021/06/08 00:12:30;;;;;;;660.70;632.03;;;14.70;99.90;;;;;;6156968;23;20465;-83
2021/06/08 00:15:00;;;;;;;657.97;630.03;;;14.70;99.90;;;;;;6166531;23;20403;-84
2021/06/08 00:17:29;;;;;;;667.50;638.53;;;14.80;99.90;;;;;;6164707;23;20417;-84
2021/06/08 00:19:56;;;;;;;661.53;632.37;;;14.80;99.90;;;;;;6166236;23;20424;-83
2021/06/08 00:22:25;;;;;;;651.90;623.77;;;14.80;99.90;;;;;;6156340;23;20913;-84
2021/06/08 00:24:52;;;;;;;662.83;634.50;;;14.80;99.90;;;;;;6166295;23;20491;-83
2021/06/08 00:27:20;;;;;;;663.13;635.07;;;14.80;99.90;;;;;;6166329;23;20405;-83
2021/06/08 00:29:51;;;;;;;655.53;628.10;;;14.90;99.90;;;;;;6166313;23;20409;-82
2021/06/08 00:32:21;;;;;;;658.87;630.97;;;14.90;99.90;;;;;;6154673;23;20937;-84
2021/06/08 00:34:48;;;;;;;660.43;632.10;;;14.90;99.90;;;;;;6165773;23;20562;-85
2021/06/08 00:37:14;;;;;;;650.00;622.23;;;15.00;99.90;;;;;;6156654;23;20485;-85
2021/06/08 00:39:43;;;;;;;652.93;625.03;;;14.90;99.90;;;;;;6157312;23;20402;-85
2021/06/08 00:42:11;;;;;;;648.10;620.43;;;14.90;99.90;;;;;;6166420;23;20449;-84
2021/06/08 00:44:41;;;;;;;651.03;623.03;;;14.90;99.90;;;;;;6166655;23;20410;-85
2021/06/08 00:47:09;;;;;;;640.33;612.43;;;15.00;99.90;;;;;;6165852;23;20501;-84
2021/06/08 00:49:49;;;;;;;635.23;608.13;;;15.00;99.90;;;;;;6155601;23;20398;-84
2021/06/08 00:52:21;;;;;;;633.03;606.53;;;15.00;99.90;;;;;;6166276;23;20437;-85
2021/06/08 00:54:58;;;;;;;611.43;585.93;;;15.00;99.90;;;;;;6166088;23;20413;-84
2021/06/08 00:57:28;;;;;;;608.10;583.27;;;15.00;99.90;;;;;;6156456;23;20461;-85
2021/06/08 00:59:57;;;;;;;595.87;571.87;;;15.00;99.90;;;;;;6166157;23;20420;-85
2021/06/08 01:02:34;;;;;;;569.43;546.33;;;15.00;99.90;;;;;;6155079;23;20409;-84
2021/06/08 01:05:02;;;;;;;544.20;521.93;;;15.10;99.90;;;;;;6156304;23;20402;-85
2021/06/08 01:07:29;;;;;;;560.90;538.10;;;15.10;99.90;;;;;;6165993;23;20413;-85
2021/06/08 01:09:59;;;;;;;549.43;524.10;;;15.10;99.90;;;;;;6165899;23;20413;-86
2021/06/08 01:12:32;;;;;;;517.27;496.30;;;15.00;99.90;;;;;;6165699;23;20453;-84
2021/06/08 01:15:07;;;;;;;466.47;447.93;;;15.10;99.90;;;;;;6166271;23;20406;-85
2021/06/08 01:17:35;;;;;;;474.47;456.20;;;15.00;99.90;;;;;;6164707;23;20441;-86
2021/06/08 01:20:09;;;;;;;479.37;460.77;;;15.00;99.90;;;;;;6166122;23;20421;-84
2021/06/08 01:22:37;;;;;;;420.33;403.30;;;15.00;99.90;;;;;;6165670;23;20921;-85
2021/06/08 01:25:09;;;;;;;355.37;340.37;;;15.00;99.90;;;;;;6165532;23;20944;-86
2021/06/08 01:27:37;;;;;;;167.27;157.00;;;15.10;99.90;;;;;;6166010;23;20786;-86
2021/06/08 01:30:17;;;;;;;220.80;209.80;;;15.20;99.90;;;;;;6156065;23;20402;-84
2021/06/08 01:32:47;;;;;;;214.77;203.27;;;15.10;99.90;;;;;;6154949;23;20438;-84
2021/06/08 01:35:17;;;;;;;209.63;198.50;;;15.20;99.90;;;;;;6165950;23;20414;-82
2021/06/08 01:37:49;;;;;;;226.83;214.77;;;15.10;99.90;;;;;;6166116;23;20406;-83
2021/06/08 01:40:19;;;;;;;244.97;233.07;;;15.10;99.90;;;;;;6165604;23;20414;-85
2021/06/08 01:42:50;;;;;;;259.63;246.77;;;15.10;99.90;;;;;;6155834;23;20406;-84
2021/06/08 01:45:17;;;;;;;360.63;345.07;;;15.10;99.90;;;;;;6156825;23;20953;-85
2021/06/08 01:47:55;;;;;;;407.37;391.43;;;15.10;99.90;;;;;;6164635;23;20721;-85
2021/06/08 01:50:25;;;;;;;406.63;390.43;;;15.00;99.90;;;;;;6156101;23;20429;-84
2021/06/08 01:53:05;;;;;;;448.87;431.43;;;15.00;99.90;;;;;;6155826;23;20440;-86
2021/06/08 01:55:36;;;;;;;501.40;481.83;;;15.00;99.90;;;;;;6165921;23;20484;-85
2021/06/08 01:58:18;;;;;;;453.53;435.50;;;15.00;99.90;;;;;;6155894;23;20406;-85
2021/06/08 02:00:51;;;;;;;480.90;462.10;;;15.00;99.90;;;;;;6155905;23;20429;-85
2021/06/08 02:03:24;;;;;;;458.20;440.27;;;15.00;99.90;;;;;;6165088;23;20973;-84
2021/06/08 02:05:58;;;;;;;437.37;420.13;;;15.00;99.90;;;;;;6195352;23;20437;-85
2021/06/08 02:08:39;;;;;;;442.20;424.60;;;14.80;99.90;;;;;;6195366;23;20423;-83
2021/06/08 02:11:09;;;;;;;497.03;476.60;;;14.80;99.90;;;;;;6195188;23;20508;-85
2021/06/08 02:13:49;;;;;;;492.37;471.77;;;14.70;99.90;;;;;;6195325;23;20908;-86
2021/06/08 02:16:23;;;;;;;478.40;459.50;;;14.60;99.90;;;;;;6195702;23;20396;-85
2021/06/08 02:18:55;;;;;;;482.07;462.80;;;14.50;99.90;;;;;;6193872;23;20460;-86
2021/06/08 02:21:28;;;;;;;496.77;476.53;;;14.40;99.90;;;;;;6195315;23;20409;-83
2021/06/08 02:23:57;;;;;;;526.97;505.77;;;14.30;99.90;;;;;;6196005;23;20955;-84
2021/06/08 02:26:34;;;;;;;520.17;498.00;;;14.30;99.90;;;;;;6185602;23;20777;-85
2021/06/08 02:29:05;;;;;;;488.80;467.13;;;14.10;99.90;;;;;;6185445;23;20504;-84
2021/06/08 02:31:49;;;;;;;494.13;473.27;;;14.00;99.90;;;;;;6185008;23;20436;-83
2021/06/08 02:34:22;;;;;;;497.57;476.50;;;13.90;99.90;;;;;;6184210;23;20482;-84
2021/06/08 02:36:52;;;;;;;531.43;507.10;;;13.90;99.90;;;;;;6195497;23;20562;-86
2021/06/08 02:39:25;;;;;;;486.97;466.37;;;13.70;99.90;;;;;;6195470;23;20729;-84
2021/06/08 02:42:01;;;;;;;485.23;463.13;;;13.70;99.90;;;;;;6197179;23;20896;-83
2021/06/08 02:44:33;;;;;;;480.73;459.23;;;13.60;99.90;;;;;;6197119;23;20903;-84
2021/06/08 02:47:02;;;;;;;426.80;408.33;;;13.60;99.90;;;;;;6197195;23;20413;-84
2021/06/08 02:49:34;;;;;;;454.63;435.43;;;13.70;99.90;;;;;;6196219;23;20451;-83
2021/06/08 02:52:08;;;;;;;473.77;452.80;;;13.50;99.90;;;;;;6187282;23;20460;-84
2021/06/08 02:54:41;;;;;;;452.97;433.37;;;13.40;99.90;;;;;;6197235;23;20435;-82
2021/06/08 02:57:12;;;;;;;463.90;442.47;;;13.40;99.90;;;;;;6198174;23;20408;-84
2021/06/08 02:59:42;;;;;;;459.10;438.57;;;13.40;99.90;;;;;;6187464;23;20409;-85
2021/06/08 03:02:18;;;;;;;453.43;433.50;;;13.30;99.90;;;;;;6186044;23;20409;-85
2021/06/08 03:04:51;;;;;;;463.77;442.63;;;13.20;99.90;;;;;;6186791;23;20436;-83
2021/06/08 03:07:21;;;;;;;483.10;461.33;;;13.20;99.90;;;;;;6196942;23;20455;-84
2021/06/08 03:09:56;;;;;;;466.20;445.33;;;13.10;99.90;;;;;;6197063;23;20408;-83
2021/06/08 03:12:26;;;;;;;479.67;457.77;;;13.20;99.90;;;;;;6197297;23;20444;-85
2021/06/08 03:14:53;;;;;;;445.10;424.20;;;13.20;99.90;;;;;;6187331;23;20405;-84
2021/06/08 03:17:30;;;;;;;445.77;426.43;;;13.30;99.90;;;;;;6195848;23;20459;-83
2021/06/08 03:20:01;;;;;;;448.97;428.87;;;13.20;99.90;;;;;;6197207;23;20408;-84
2021/06/08 03:22:30;;;;;;;467.27;446.60;;;13.20;99.90;;;;;;6186748;23;20440;-85
2021/06/08 03:25:00;;;;;;;476.80;453.10;;;13.20;99.90;;;;;;6186747;23;20413;-84
2021/06/08 03:27:30;;;;;;;457.43;436.27;;;13.20;99.90;;;;;;6187205;23;20396;-84
2021/06/08 03:30:04;;;;;;;471.60;450.10;;;13.30;99.90;;;;;;6196823;23;20901;-82
2021/06/08 03:32:34;;;;;;;462.80;442.40;;;13.20;99.90;;;;;;6185672;23;20441;-84
2021/06/08 03:35:12;;;;;;;462.23;440.40;;;13.20;99.90;;;;;;6187179;23;20397;-83
2021/06/08 03:37:43;;;;;;;459.97;439.40;;;13.30;99.90;;;;;;6196988;23;20413;-85
2021/06/08 03:40:13;;;;;;;454.80;434.60;;;13.40;99.90;;;;;;6196662;23;20455;-84
2021/06/08 03:42:42;;;;;;;445.57;424.77;;;13.40;99.90;;;;;;6196882;23;20896;-84
2021/06/08 03:45:12;;;;;;;446.37;426.10;;;13.40;99.90;;;;;;6196906;23;20790;-83
2021/06/08 03:47:41;;;;;;;421.70;403.23;;;13.40;99.90;;;;;;6195814;23;20465;-85
2021/06/08 03:50:12;;;;;;;429.90;410.00;;;13.50;99.90;;;;;;6186971;23;20802;-84
2021/06/08 03:52:50;;;;;;;444.30;424.00;;;13.50;99.90;;;;;;6186101;23;20967;-82
2021/06/08 03:55:19;;;;;;;436.90;416.87;;;13.50;99.90;;;;;;6196693;23;20467;-85
2021/06/08 03:57:55;;;;;;;419.87;401.27;;;13.70;99.90;;;;;;6196471;23;20419;-83
2021/06/08 04:00:24;;;;;;;417.83;399.37;;;13.70;99.90;;;;;;6186899;23;20757;-83
2021/06/08 04:02:59;;;;;;;418.37;399.67;;;13.80;99.90;;;;;;6185263;23;20456;-83
2021/06/08 04:05:28;;;;;;;427.77;409.87;;;13.80;99.90;;;;;;6196565;23;20411;-84
2021/06/08 04:07:58;;;;;;;429.97;411.97;;;13.90;99.90;;;;;;6197479;23;20401;-85
2021/06/08 04:10:29;;;;;;;416.63;398.47;;;13.90;99.90;;;;;;6196819;23;20400;-84
2021/06/08 04:13:01;;;;;;;422.20;404.40;;;14.00;99.90;;;;;;6196620;23;20448;-84
2021/06/08 04:15:30;;;;;;;446.77;427.37;;;14.20;99.90;;;;;;6186635;23;20397;-84
2021/06/08 04:17:58;;;;;;;416.27;398.03;;;14.10;99.90;;;;;;6194898;23;20413;-83
2021/06/08 04:20:27;;;;;;;386.90;369.70;;;14.20;99.90;;;;;;6196317;23;20475;-84
2021/06/08 04:23:00;;;;;;;377.37;360.87;;;14.30;99.90;;;;;;6196585;23;20738;-84
2021/06/08 04:25:37;;;;;;;353.60;338.03;;;14.30;99.90;;;;;;6186438;23;20764;-85
2021/06/08 04:28:09;;;;;;;303.23;288.63;;;14.40;99.90;;;;;;6196405;23;20705;-85
2021/06/08 04:30:35;;;;;;;257.17;244.87;;;14.30;99.90;;;;;;6196117;23;20900;-83
2021/06/08 04:33:03;;;;;;;240.43;228.07;;;14.40;99.90;;;;;;6195172;23;20439;-83
2021/06/08 04:35:30;;;;;;;202.83;190.80;;;14.50;99.90;;;;;;6196215;23;20404;-83
2021/06/08 04:38:00;;;;;;;184.20;173.20;;;14.60;99.90;;;;;;6186514;23;20401;-85
2021/06/08 04:40:36;;;;;;;146.30;136.20;;;14.70;99.90;;;;;;6196515;23;20694;-83
2021/06/08 04:43:05;;;;;;;125.90;116.03;;;14.80;99.90;;;;;;6186429;23;20421;-83
2021/06/08 04:45:35;;;;;;;113.73;105.43;;;14.80;99.90;;;;;;6195934;23;20413;-84
2021/06/08 04:48:03;;;;;;;90.60;83.03;;;14.90;99.90;;;;;;6195146;23;20433;-84
2021/06/08 04:50:35;;;;;;;80.27;72.73;;;14.80;99.90;;;;;;6195971;23;20471;-84
2021/06/08 04:53:07;;;;;;;64.90;55.60;;;15.00;99.90;;;;;;6196157;23;21017;-84
2021/06/08 04:55:36;;;;;;;60.63;49.87;;;15.00;99.90;;;;;;6186254;23;20405;-85
2021/06/08 04:58:12;;;;;;;56.83;46.30;;;15.10;99.90;;;;;;6195830;23;20405;-84
2021/06/08 05:00:46;;;;;;;54.37;38.60;;;15.20;99.90;;;;;;6196398;23;20401;-84
2021/06/08 05:03:21;;;;;;;54.40;28.53;;;15.30;99.90;;;;;;6194314;23;20467;-85
2021/06/08 05:05:51;;;;;;;57.00;27.87;;;15.30;99.90;;;;;;6196391;23;20408;-83
2021/06/08 05:08:24;;;;;;;47.83;26.53;;;15.40;99.90;;;;;;6196052;23;20412;-86
2021/06/08 05:11:01;;;;;;;55.10;29.90;;;15.50;99.90;;;;;;6186277;23;20401;-83
2021/06/08 05:13:34;;;;;;;47.47;26.60;;;15.60;99.90;;;;;;6196134;23;20474;-84
2021/06/08 05:16:01;;;;;;;52.67;24.70;;;15.80;99.90;;;;;;6186315;23;20429;-86
2021/06/08 05:18:28;;;;;;;58.83;21.50;;;15.70;99.90;;;;;;6194615;23;20413;-87
2021/06/08 05:20:58;;;;;;;48.57;23.00;;;15.80;99.90;;;;;;6195894;23;20413;-85
2021/06/08 05:23:26;;;;;;;49.90;21.37;;;15.60;99.90;;;;;;6185584;23;20397;-83
2021/06/08 05:25:54;;;;;;;46.10;19.30;;;15.60;99.90;;;;;;6195845;23;20934;-84
2021/06/08 05:28:21;;;;;;;47.80;21.00;;;15.70;99.90;;;;;;6186085;23;20721;-84
2021/06/08 05:30:55;;;;;;;49.80;20.50;;;15.80;99.90;;;;;;6196000;23;20405;-86
2021/06/08 05:33:57;;;;;;;52.10;22.10;;;15.80;99.90;;;;;;6194270;23;20429;-85
2021/06/08 05:36:28;;;;;;;49.67;23.10;;;15.90;99.90;;;;;;6182326;23;20421;-83
2021/06/08 05:38:55;;;;;;;51.83;20.97;;;16.00;99.90;;;;;;6195464;23;20415;-86
2021/06/08 05:41:23;;;;;;;52.27;20.80;;;16.10;99.90;;;;;;6195502;23;20984;-88
2021/06/08 05:43:49;;;;;;;49.30;18.20;;;16.20;99.90;;;;;;6185885;23;20463;-89
2021/06/08 05:46:27;;;;;;;43.87;18.43;;;16.10;99.90;;;;;;6195961;23;20464;-85
2021/06/08 05:49:02;;;;;;;48.53;19.20;;;16.10;99.90;;;;;;6194469;23;20424;-88
2021/06/08 05:51:34;;;;;;;45.90;20.37;;;16.30;99.90;;;;;;6195691;23;20456;-87
2021/06/08 05:54:19;;;;;;;48.57;19.17;;;16.40;99.90;;;;;;6195813;23;20417;-88
2021/06/08 06:00:51;;;;;;;48.30;19.13;;;16.60;99.90;;;;;;6180250;23;20707;-86
2021/06/08 06:03:34;;;;;;;43.20;17.93;;;16.70;99.90;;;;;;6194141;23;20467;-87
2021/06/08 06:06:07;;;;;;;51.30;17.83;;;16.70;99.90;;;;;;6195613;23;20774;-88
2021/06/08 06:09:02;;;;;;;;;;;;;;;;;;;;;
2021/06/08 06:11:53;;;;;;;44.33;17.30;;;17.20;99.90;;;;;;6195723;23;20417;-86
2021/06/08 06:14:23;;;;;;;43.07;15.20;;;17.20;99.90;;;;;;6195316;23;20751;-84
2021/06/08 06:16:57;;;;;;;43.27;14.60;;;17.30;99.90;;;;;;6195582;23;20401;-82
2021/06/08 06:19:24;;;;;;;43.80;15.37;;;17.40;99.90;;;;;;6194946;23;20401;-84
2021/06/08 06:21:53;;;;;;;44.33;14.30;;;17.40;99.90;;;;;;6195594;23;20790;-84
2021/06/08 06:24:21;;;;;;;41.30;13.57;;;17.70;99.90;;;;;;6195626;23;20435;-83
2021/06/08 06:26:54;;;;;;;47.67;14.53;;;17.90;99.90;;;;;;6185935;23;20420;-86
2021/06/08 06:29:49;;;;;;;46.07;14.80;;;18.00;99.90;;;;;;6195790;23;20413;-87
2021/06/08 06:32:25;;;;;;;43.13;12.00;;;18.00;99.90;;;;;;6194251;23;20420;-87
2021/06/08 06:35:13;;;;;;;;;;;;;;;;;;;;;
2021/06/08 06:37:57;;;;;;;46.57;12.30;;;18.00;99.90;;;;;;6195126;23;20447;-88
2021/06/08 06:40:39;;;;;;;50.00;14.03;;;18.00;99.90;;;;;;6195632;23;20439;-88
2021/06/08 06:43:23;;;;;;;44.60;13.00;;;18.20;99.90;;;;;;6195438;23;20424;-87
2021/06/08 06:49:12;;;;;;;51.17;14.27;;;18.90;99.90;;;;;;6121922;23;20425;-87
2021/06/08 06:52:05;;;;;;;52.20;14.67;;;19.50;99.90;;;;;;6185332;23;20439;-87
2021/06/08 06:54:45;;;;;;;59.40;14.80;;;19.90;95.10;;;;;;6194691;23;20483;-88
2021/06/08 06:57:21;;;;;;;54.23;14.20;;;20.20;86.20;;;;;;6185475;23;20413;-85
2021/06/08 07:03:15;;;;;;;56.37;15.70;;;20.20;91.80;;;;;;6162765;23;20443;-88
2021/06/08 07:05:54;;;;;;;54.43;16.93;;;20.20;85.00;;;;;;6162755;23;20414;-88
2021/06/08 07:08:53;;;;;;;58.27;16.80;;;20.00;91.60;;;;;;6163886;23;20410;-87
2021/06/08 07:11:28;;;;;;;53.47;14.10;;;20.00;95.10;;;;;;6153640;23;20420;-87
2021/06/08 07:14:30;;;;;;;;;;;;;;;;;;;;;
2021/06/08 07:17:11;;;;;;;55.03;15.63;;;20.20;92.40;;;;;;6016491;23;20750;-88
2021/06/08 07:19:59;;;;;;;;;;;;;;;;;;;;;
2021/06/08 07:22:39;;;;;;;56.90;15.70;;;20.30;97.10;;;;;;6110575;23;20449;-88
2021/06/08 07:25:49;;;;;;;53.40;14.97;;;20.60;93.50;;;;;;6163782;23;20738;-88
2021/06/08 07:31:54;;;;;;;61.40;16.63;;;20.80;83.50;;;;;;6163380;23;20418;-89
2021/06/08 07:34:52;;;;;;;66.00;17.90;;;20.60;90.20;;;;;;6124887;23;20840;-88
2021/06/08 07:37:49;;;;;;;61.60;16.00;;;20.80;94.80;;;;;;6065023;23;20524;-89
2021/06/08 07:40:31;;;;;;;60.40;16.80;;;20.80;92.50;;;;;;6155129;23;20421;-87
2021/06/08 07:46:27;;;;;;;64.47;17.57;;;21.00;90.70;;;;;;6139645;23;20425;-88
2021/06/08 07:49:17;;;;;;;60.83;17.10;;;20.80;91.10;;;;;;6153204;23;20433;-89
2021/06/08 07:51:58;;;;;;;66.40;17.07;;;21.10;93.00;;;;;;6074762;23;20440;-88
2021/06/08 07:54:48;;;;;;;64.07;18.23;;;21.30;83.90;;;;;;6166367;23;20405;-88
2021/06/08 07:57:36;;;;;;;66.93;17.90;;;21.90;77.60;;;;;;6165574;23;20421;-85
2021/06/08 08:00:30;;;;;;;66.90;16.47;;;22.00;80.00;;;;;;6166015;23;20468;-85
2021/06/08 08:06:03;;;;;;;77.73;19.90;;;22.00;57.00;;;;;;6211823;23;20412;-84
2021/06/08 08:08:54;;;;;;;;;;;;;;;;;;;;;
2021/06/08 08:11:22;;;;;;;70.40;19.73;;;22.60;55.70;;;;;;6150359;23;20412;-81
2021/06/08 08:13:57;;;;;;;75.87;21.40;;;22.40;48.40;;;;;;6216407;23;20404;-80
2021/06/08 08:16:46;;;;;;;74.10;22.30;;;22.40;53.20;;;;;;6226502;23;20734;-83
2021/06/08 08:19:32;;;;;;;;;;;;;;;;;;;;;
2021/06/08 08:21:59;;;;;;;72.20;22.80;;;23.00;47.20;;;;;;6226568;23;20428;-82
2021/06/08 08:27:14;;;;;;;69.33;18.97;;;22.50;52.00;;;;;;6215641;23;20403;-83
2021/06/08 08:29:56;;;;;;;72.57;20.70;;;22.50;51.80;;;;;;6226310;23;20419;-83
2021/06/08 08:32:30;;;;;;;71.97;21.60;;;23.30;49.40;;;;;;6224318;23;20738;-82
2021/06/08 08:35:04;;;;;;;73.20;22.40;;;23.10;40.30;;;;;;6226098;23;20408;-82
2021/06/08 08:37:36;;;;;;;75.10;22.10;;;23.00;42.20;;;;;;6225838;23;20419;-87
2021/06/08 08:40:20;;;;;;;80.70;25.20;;;23.00;47.20;;;;;;6216075;23;20435;-87
2021/06/08 08:43:16;;;;;;;;;;;;;;;;;;;;;
2021/06/08 08:45:53;;;;;;;82.93;23.50;;;22.90;54.40;;;;;;6226211;23;20872;-83
2021/06/08 08:48:27;;;;;;;85.93;23.77;;;22.70;46.90;;;;;;6224363;23;20755;-83
2021/06/08 08:51:22;;;;;;;84.67;29.53;;;22.50;52.70;;;;;;6215941;23;20401;-83
2021/06/08 08:54:08;;;;;;;77.97;25.97;;;22.40;55.50;;;;;;6226515;23;20503;-82
2021/06/08 08:56:39;;;;;;;88.13;25.00;;;22.20;47.50;;;;;;6226552;23;20891;-83
2021/06/08 08:59:19;;;;;;;75.47;23.30;;;22.30;47.80;;;;;;6226382;23;20734;-82
2021/06/08 09:01:55;;;;;;;72.03;21.20;;;22.30;44.40;;;;;;6226035;23;20864;-82
2021/06/08 09:04:41;;;;;;;72.60;22.37;;;22.20;42.30;;;;;;6224866;23;20400;-83
2021/06/08 09:07:14;;;;;;;74.27;20.90;;;22.30;48.70;;;;;;6216200;23;20506;-83
2021/06/08 09:10:02;;;;;;;73.30;21.27;;;22.70;42.10;;;;;;6225887;23;20418;-82
2021/06/08 09:13:07;;;;;;;74.77;23.33;;;23.00;38.10;;;;;;6226065;23;20435;-84
2021/06/08 09:26:17;;;;;;;;;;;;;;;;;;;;;
2021/06/08 09:45:10;;;;;;;65.00;14.60;;;26.40;8.70;;;;;;6045118;23;20512;-86
2021/06/08 09:48:01;;;;;;;68.47;17.87;;;26.20;8.80;;;;;;6175438;23;20408;-79
2021/06/08 09:50:32;;;;;;;66.17;11.37;;;25.60;7.10;;;;;;6215600;23;20404;-79
2021/06/08 09:53:18;;;;;;;65.57;14.03;;;25.70;9.70;;;;;;6215517;23;20408;-79
2021/06/08 09:56:13;;;;;;;63.93;12.40;;;25.50;8.40;;;;;;6225989;23;20478;-79
2021/06/08 09:58:45;;;;;;;67.60;15.87;;;24.70;12.80;;;;;;6225669;23;20483;-80
2021/06/08 10:01:19;;;;;;;67.20;18.20;;;24.00;14.30;;;;;;6215756;23;20407;-81
2021/06/08 10:03:48;;;;;;;68.47;18.33;;;24.40;17.50;;;;;;6223911;23;20455;-80
2021/06/08 10:06:16;;;;;;;67.07;19.23;;;25.30;11.50;;;;;;6225462;23;20911;-80
2021/06/08 10:16:29;;;;;;;68.77;22.83;;;26.00;5.90;;;;;;6045783;23;20446;-84
2021/06/08 10:26:45;;;;;;;;;;;;;;;;;;;;;
2021/06/08 10:39:48;;;;;;;;;;;;;;;;;;;;;
2021/06/08 10:55:44;;;;;;;73.60;40.87;;;24.30;14.10;;;;;;6149655;23;20496;-86
2021/06/08 10:59:11;;;;;;;72.20;36.80;;;24.70;13.50;;;;;;6162507;23;20490;-85
2021/06/08 11:01:58;;;;;;;70.63;37.13;;;24.50;15.40;;;;;;6065119;23;20422;-87
2021/06/08 11:04:59;;;;;;;;;;;;;;;;;;;;;
2021/06/08 11:07:58;;;;;;;72.87;30.73;;;24.50;13.50;;;;;;6214807;23;20470;-86
2021/06/08 11:11:08;;;;;;;;;;;;;;;;;;;;;
2021/06/08 11:14:18;;;;;;;;;;;;;;;;;;;;;
2021/06/08 11:17:16;;;;;;;78.27;35.93;;;25.70;8.50;;;;;;6227446;23;20396;-86
2021/06/08 11:20:20;;;;;;;76.83;31.50;;;26.60;5.10;;;;;;6212582;23;20466;-87
2021/06/08 11:23:08;;;;;;;74.07;28.70;;;26.60;5.40;;;;;;6227212;23;20435;-86
2021/06/08 11:25:44;;;;;;;75.20;28.43;;;26.30;4.20;;;;;;6226822;23;20462;-87
2021/06/08 11:28:20;;;;;;;79.07;31.53;;;26.20;2.90;;;;;;6227205;23;20415;-87
2021/06/08 11:34:19;;;;;;;75.50;25.93;;;26.40;4.90;;;;;;6211611;23;20426;-86
2021/06/08 11:36:47;;;;;;;79.00;31.30;;;25.60;7.30;;;;;;6226720;23;20443;-86
2021/06/08 11:39:35;;;;;;;82.90;35.17;;;25.40;4.00;;;;;;6227069;23;20466;-87
2021/06/08 11:42:07;;;;;;;80.70;39.20;;;25.70;4.40;;;;;;6216945;23;20806;-87
2021/06/08 11:44:37;;;;;;;77.47;35.00;;;25.80;5.50;;;;;;6216806;23;20405;-86
2021/06/08 11:47:07;;;;;;;75.00;34.43;;;25.40;10.00;;;;;;6215909;23;20411;-86
2021/06/08 11:49:56;;;;;;;78.00;36.47;;;25.70;8.50;;;;;;6226954;23;20727;-86
2021/06/08 11:52:26;;;;;;;77.70;33.97;;;25.40;8.20;;;;;;6216731;23;20415;-86
2021/06/08 11:55:26;;;;;;;76.60;33.27;;;25.20;9.00;;;;;;6226968;23;20453;-86
2021/06/08 11:57:57;;;;;;;72.40;30.43;;;25.50;6.10;;;;;;6227249;23;20423;-86
2021/06/08 12:00:44;;;;;;;73.80;29.20;;;25.80;6.30;;;;;;6226833;23;20486;-86
2021/06/08 12:03:31;;;;;;;71.70;29.03;;;28.20;1.00;;;;;;6225033;23;20439;-86
2021/06/08 12:09:04;;;;;;;78.17;22.50;;;31.60;1.00;;;;;;6225441;23;20425;-90
2021/06/08 12:11:36;;;;;;;73.20;18.40;;;32.10;1.00;;;;;;6226426;23;20465;-87
2021/06/08 12:14:08;;;;;;;77.87;18.97;;;31.90;1.00;;;;;;6213722;23;20400;-88
2021/06/08 12:16:35;;;;;;;79.73;18.60;;;33.00;1.00;;;;;;6215037;23;20403;-88
2021/06/08 12:19:07;;;;;;;77.50;20.87;;;33.00;1.00;;;;;;6224006;23;20390;-85
2021/06/08 12:22:19;;;;;;;;;;;;;;;;;;;;;
2021/06/08 12:28:30;;;;;;;73.57;16.63;;;29.50;1.00;;;;;;5911064;24;20451;-82
2021/06/08 12:31:30;;;;;;;74.80;17.87;;;29.20;1.00;;;;;;5934923;24;20417;-82
2021/06/08 12:34:19;;;;;;;71.37;15.60;;;28.90;1.00;;;;;;5985962;23;20421;-85
2021/06/08 12:36:48;;;;;;;73.10;16.50;;;28.80;1.00;;;;;;6046700;23;20422;-85
2021/06/08 12:39:46;;;;;;;71.53;14.90;;;30.10;1.00;;;;;;6046956;23;20952;-85
2021/06/08 12:42:31;;;;;;;71.67;15.73;;;30.30;1.00;;;;;;6047071;23;20450;-85
2021/06/08 12:45:20;;;;;;;79.40;19.50;;;30.20;1.00;;;;;;6091042;23;20419;-85
2021/06/08 13:10:33;;;;;;;73.80;16.47;;;28.00;1.00;;;;;;6017397;23;20447;-80
2021/06/08 13:13:18;;;;;;;76.50;18.70;;;27.60;1.00;;;;;;6091320;23;20970;-80
2021/06/08 13:15:50;;;;;;;73.63;18.57;;;27.70;1.00;;;;;;6096948;23;20431;-81
2021/06/08 13:18:20;;;;;;;71.60;17.30;;;27.80;1.00;;;;;;6103297;23;20432;-80
2021/06/08 13:20:48;;;;;;;72.90;19.77;;;28.30;1.00;;;;;;6164968;23;20418;-80
2021/06/08 13:23:30;;;;;;;74.07;17.80;;;29.50;1.00;;;;;;6215845;23;20487;-81
2021/06/08 13:26:10;;;;;;;74.10;17.20;;;29.90;1.00;;;;;;6216078;23;20400;-81
2021/06/08 13:28:41;;;;;;;75.80;20.13;;;30.10;1.00;;;;;;6216048;23;20450;-80
2021/06/08 13:31:35;;;;;;;71.67;16.43;;;29.90;1.00;;;;;;6226008;23;20459;-81
2021/06/08 13:34:37;;;;;;;73.17;18.10;;;29.50;1.00;;;;;;6223101;23;20482;-81
2021/06/08 13:37:06;;;;;;;76.57;19.33;;;30.90;1.00;;;;;;6199661;23;20390;-81
2021/06/08 13:39:40;;;;;;;75.50;17.20;;;31.10;1.00;;;;;;6225558;23;20550;-80
2021/06/08 13:42:34;;;;;;;;;;;;;;;;;;;;;
2021/06/08 13:45:03;;;;;;;80.23;22.37;;;32.30;1.00;;;;;;6209555;23;20411;-80
2021/06/08 13:47:30;;;;;;;77.47;21.07;;;32.80;1.00;;;;;;6214029;23;20970;-81
2021/06/08 13:49:57;;;;;;;81.70;22.90;;;33.50;1.00;;;;;;6215808;23;20427;-82
2021/06/08 13:55:59;;;;;;;82.53;27.03;;;34.90;1.00;;;;;;6213462;23;20395;-82
2021/06/08 14:01:23;;;;;;;99.30;61.13;;;32.40;1.00;;;;;;6215596;23;20178;-81
2021/06/08 14:04:19;;;;;;;91.20;40.83;;;31.00;1.00;;;;;;6213905;23;20501;-81
2021/06/08 14:06:49;;;;;;;89.00;33.67;;;30.90;1.00;;;;;;6153741;23;20420;-82
2021/06/08 14:09:18;;;;;;;83.90;26.87;;;31.70;1.00;;;;;;6215800;23;20414;-81
2021/06/08 14:11:48;;;;;;;83.77;28.20;;;32.90;1.00;;;;;;6225387;23;20685;-82
2021/06/08 14:14:17;;;;;;;86.27;28.90;;;32.40;1.00;;;;;;6225613;23;20397;-81
2021/06/08 14:16:48;;;;;;;81.83;24.53;;;32.30;1.00;;;;;;6215772;23;20401;-81
2021/06/08 14:19:16;;;;;;;86.97;28.77;;;33.10;1.00;;;;;;6214014;23;20400;-81
2021/06/08 14:21:42;;;;;;;83.23;27.80;;;33.80;1.00;;;;;;6215041;23;20400;-81
2021/06/08 14:24:09;;;;;;;87.70;35.67;;;34.40;1.00;;;;;;6215649;23;20432;-81
2021/06/08 14:26:36;;;;;;;91.23;44.77;;;35.00;1.00;;;;;;6215290;23;20777;-80
2021/06/08 14:29:06;;;;;;;90.87;45.80;;;33.90;1.00;;;;;;6215594;23;20439;-83
2021/06/08 14:31:42;;;;;;;87.80;38.47;;;34.20;1.00;;;;;;6215546;23;20381;-83
2021/06/08 14:34:11;;;;;;;93.77;35.20;;;34.00;1.00;;;;;;6223718;23;20396;-83
2021/06/08 14:36:41;;;;;;;85.80;32.57;;;32.50;1.00;;;;;;6226781;23;20407;-83
2021/06/08 14:39:12;;;;;;;88.80;33.27;;;32.60;1.00;;;;;;6217200;23;20487;-84
2021/06/08 14:41:39;;;;;;;86.67;32.37;;;32.20;1.00;;;;;;6227332;23;20419;-82
2021/06/08 14:44:07;;;;;;;83.40;27.93;;;32.70;1.00;;;;;;6217259;23;20431;-83
2021/06/08 14:46:38;;;;;;;84.07;27.53;;;32.70;1.00;;;;;;6227660;23;20387;-83
2021/06/08 14:49:16;;;;;;;87.43;29.37;;;32.40;1.00;;;;;;6216076;23;20427;-83
2021/06/08 14:51:46;;;;;;;84.90;29.57;;;31.50;1.00;;;;;;6217497;23;20419;-84
2021/06/08 14:54:14;;;;;;;82.10;27.20;;;31.40;1.00;;;;;;6217148;23;20375;-83
2021/06/08 14:56:48;;;;;;;85.83;28.77;;;31.60;1.00;;;;;;6227071;23;20408;-83
2021/06/08 14:59:18;;;;;;;84.70;27.10;;;31.90;1.00;;;;;;6217333;23;20396;-82
2021/06/08 15:01:48;;;;;;;83.63;27.50;;;31.20;1.00;;;;;;6217057;23;20403;-83
2021/06/08 15:04:15;;;;;;;81.53;29.50;;;30.30;1.00;;;;;;6225816;23;20486;-83
2021/06/08 15:06:41;;;;;;;85.40;27.30;;;29.40;1.00;;;;;;6217499;23;20370;-83
2021/06/08 15:09:42;;;;;;;81.97;25.10;;;30.20;1.00;;;;;;6217254;23;20371;-83
2021/06/08 15:12:16;;;;;;;81.27;25.37;;;30.00;1.00;;;;;;6217100;23;20438;-84
2021/06/08 15:14:43;;;;;;;83.63;26.03;;;30.00;1.00;;;;;;6227402;23;20383;-84
2021/06/08 15:17:12;;;;;;;82.67;24.60;;;30.70;1.00;;;;;;6226813;23;20401;-84
2021/06/08 15:19:41;;;;;;;84.60;24.27;;;31.10;1.00;;;;;;6226726;23;20487;-83
2021/06/08 15:22:07;;;;;;;82.30;24.53;;;31.50;1.00;;;;;;6227340;23;20412;-82
2021/06/08 15:25:02;;;;;;;80.23;23.30;;;31.60;1.00;;;;;;6227259;23;20403;-83
2021/06/08 15:27:29;;;;;;;78.87;23.63;;;31.80;1.00;;;;;;6216640;23;20431;-82
2021/06/08 15:30:01;;;;;;;80.70;23.80;;;30.40;1.00;;;;;;6226695;23;20379;-85
2021/06/08 15:32:31;;;;;;;81.47;24.53;;;29.70;1.00;;;;;;6215743;23;20467;-84
2021/06/08 15:35:02;;;;;;;80.83;24.80;;;30.00;1.00;;;;;;6216977;23;20432;-84
2021/06/08 15:37:29;;;;;;;82.70;24.10;;;30.30;1.00;;;;;;6217154;23;20431;-83